Time;durP1;ratioP1;P1;durP2;ratioP2;P2;SDS_P1;SDS_P2;PMS_P1;PMS_P2;Temp;Humidity;BMP_temperature;BMP_pressure;BME280_temperature;BME280_humidity;BME280_pressure;Samples;Min_cycle;Max_cycle;Signal;HPM_P1;HPM_P2
2023/01/10 07:11:27;;;;;;;;;;;;;;;8.02;65.04;97665.38;4248042;27;10383;-73
2023/01/10 07:13:30;;;;;;;;;;;;;;;8.34;64.76;97658.63;4215742;28;5636;-73
2023/01/10 07:15:34;;;;;;;;;;;;;;;8.59;64.43;97672.75;4233303;27;5711;-73
2023/01/10 07:17:37;;;;;;;;;;;;;;;8.81;64.08;97676.63;4230950;28;5625;-73
2023/01/10 07:19:41;;;;;;;;;;;;;;;8.95;63.57;97687.41;4229683;28;5609;-74
2023/01/10 07:21:45;;;;;;;;;;;;;;;9.07;63.31;97689.72;4253544;27;5589;-74
2023/01/10 07:23:49;;;;;;;;;;;;;;;9.12;63.35;97685.59;4241705;27;5594;-74
2023/01/10 07:25:53;;;;;;;;;;;;;;;9.20;63.37;97688.25;4251360;27;6299;-73
2023/01/10 07:27:57;;;;;;;;;;;;;;;9.29;63.28;97699.66;4242011;27;5110;-74
2023/01/10 07:30:00;;;;;;;;;;;;;;;9.34;63.01;97700.81;4249921;27;5598;-72
2023/01/10 07:32:04;;;;;;;;;;;;;;;9.41;63.12;97706.28;4247484;27;5685;-73
2023/01/10 07:34:08;;;;;;;;;;;;;;;9.44;62.95;97705.94;4239724;27;5768;-73
2023/01/10 07:36:12;;;;;;;;;;;;;;;9.50;62.73;97704.44;4230761;28;5643;-74
2023/01/10 07:38:15;;;;;;;;;;;;;;;9.55;62.57;97704.78;4240587;27;5676;-74
2023/01/10 07:40:19;;;;;;;;;;;;;;;9.58;62.41;97707.91;4243502;27;5635;-74
2023/01/10 07:42:22;;;;;;;;;;;;;;;9.60;62.51;97720.94;4234610;27;5620;-74
2023/01/10 07:44:26;;;;;;;;;;;;;;;9.58;62.44;97712.38;4245144;27;5610;-74
2023/01/10 07:46:30;;;;;;;;;;;;;;;9.62;62.38;97716.31;4222747;28;5635;-74
2023/01/10 07:48:33;;;;;;;;;;;;;;;9.64;62.38;97727.56;4232713;27;5804;-74
2023/01/10 07:50:37;;;;;;;;;;;;;;;9.65;62.34;97733.69;4247757;27;5773;-74
2023/01/10 07:52:40;;;;;;;;;;;;;;;9.62;62.20;97729.53;4248535;27;5666;-74
2023/01/10 07:54:43;;;;;;;;;;;;;;;9.61;61.79;97735.78;4247842;27;5609;-74
2023/01/10 07:56:46;;;;;;;;;;;;;;;9.65;61.78;97736.31;4248777;27;5486;-75
2023/01/10 07:58:50;;;;;;;;;;;;;;;9.66;61.85;97744.06;4249165;27;5642;-74
2023/01/10 08:00:57;;;;;;;;;;;;;;;9.69;61.67;97745.56;4244530;27;5598;-74
2023/01/10 08:03:00;;;;;;;;;;;;;;;9.68;61.58;97744.72;4241545;27;5717;-75
2023/01/10 08:05:04;;;;;;;;;;;;;;;9.66;61.43;97745.88;4246349;27;5665;-74
2023/01/10 08:07:07;;;;;;;;;;;;;;;9.68;61.64;97744.72;4249487;27;5628;-73
2023/01/10 08:09:10;;;;;;;;;;;;;;;9.71;61.19;97747.03;4240361;27;5752;-74
2023/01/10 08:11:13;;;;;;;;;;;;;;;9.72;61.47;97756.59;4237492;27;5781;-74
2023/01/10 08:13:17;;;;;;;;;;;;;;;9.74;61.08;97754.66;4226478;28;5612;-74
2023/01/10 08:15:21;;;;;;;;;;;;;;;9.77;60.91;97758.75;4232063;28;5677;-74
2023/01/10 08:17:26;;;;;;;;;;;;;;;9.74;60.99;97759.94;4226663;28;5111;-74
2023/01/10 08:19:29;;;;;;;;;;;;;;;9.73;61.02;97758.25;4225808;28;5415;-74
2023/01/10 08:21:32;;;;;;;;;;;;;;;9.77;61.20;97766.69;4236792;28;6982;-74
2023/01/10 08:23:36;;;;;;;;;;;;;;;9.77;60.83;97764.03;4236277;28;5751;-74
2023/01/10 08:25:39;;;;;;;;;;;;;;;9.79;60.88;97770.81;4234368;28;5819;-74
2023/01/10 08:27:42;;;;;;;;;;;;;;;9.78;60.55;97773.63;4222213;28;6778;-73
2023/01/10 08:29:45;;;;;;;;;;;;;;;9.75;60.70;97776.59;4233440;28;5677;-73
2023/01/10 08:31:48;;;;;;;;;;;;;;;9.75;60.40;97784.50;4228060;28;5739;-74
2023/01/10 08:33:53;;;;;;;;;;;;;;;9.70;60.52;97784.16;4228921;28;5645;-74
2023/01/10 08:35:57;;;;;;;;;;;;;;;9.72;60.58;97790.94;4221570;28;5628;-75
2023/01/10 08:38:00;;;;;;;;;;;;;;;9.71;60.16;97789.28;4226242;28;5697;-73
2023/01/10 08:40:05;;;;;;;;;;;;;;;9.69;60.19;97791.25;4232687;28;5628;-74
2023/01/10 08:42:08;;;;;;;;;;;;;;;9.70;59.74;97784.16;4229138;28;5621;-73
2023/01/10 08:44:14;;;;;;;;;;;;;;;9.63;60.15;97789.28;4231531;28;5817;-72
2023/01/10 08:46:17;;;;;;;;;;;;;;;9.55;60.11;97781.34;4228595;28;5621;-74
2023/01/10 08:48:20;;;;;;;;;;;;;;;9.56;59.93;97783.00;4227919;28;5606;-73
2023/01/10 08:50:26;;;;;;;;;;;;;;;9.57;59.90;97785.47;4219762;28;5755;-73
2023/01/10 08:52:29;;;;;;;;;;;;;;;9.60;60.05;97773.75;4220449;28;5764;-73
2023/01/10 08:54:33;;;;;;;;;;;;;;;9.62;60.36;97782.31;4237050;28;5630;-73
2023/01/10 08:56:38;;;;;;;;;;;;;;;9.66;60.08;97777.56;4213775;28;5767;-75
2023/01/10 08:58:42;;;;;;;;;;;;;;;9.69;59.73;97788.63;4233541;28;5720;-74
2023/01/10 09:00:45;;;;;;;;;;;;;;;9.68;59.65;97773.78;4236222;28;5682;-73
2023/01/10 09:02:48;;;;;;;;;;;;;;;9.67;59.85;97787.13;4234848;28;5835;-74
2023/01/10 09:04:52;;;;;;;;;;;;;;;9.63;60.15;97790.13;4235968;28;6409;-75
2023/01/10 09:06:56;;;;;;;;;;;;;;;9.62;59.76;97792.88;4231921;28;5605;-75
2023/01/10 09:08:59;;;;;;;;;;;;;;;9.63;59.65;97799.84;4219484;28;5616;-75
2023/01/10 09:11:03;;;;;;;;;;;;;;;9.64;59.70;97801.50;4235508;28;5613;-74
2023/01/10 09:13:06;;;;;;;;;;;;;;;9.64;59.63;97796.22;4234370;28;5598;-74
2023/01/10 09:15:10;;;;;;;;;;;;;;;9.62;59.64;97804.28;4235633;28;5537;-74
2023/01/10 09:17:15;;;;;;;;;;;;;;;9.66;59.62;97806.59;4232488;28;5801;-74
2023/01/10 09:19:18;;;;;;;;;;;;;;;9.67;59.59;97810.91;4208780;28;5625;-75
2023/01/10 09:21:21;;;;;;;;;;;;;;;9.66;59.47;97807.44;4220551;28;5609;-74
2023/01/10 09:23:26;;;;;;;;;;;;;;;9.67;59.29;97806.44;4235097;28;5709;-74
2023/01/10 09:25:29;;;;;;;;;;;;;;;9.70;59.26;97805.28;4228171;28;5847;-74
2023/01/10 09:27:33;;;;;;;;;;;;;;;9.66;59.04;97804.78;4227293;28;5613;-75
2023/01/10 09:29:37;;;;;;;;;;;;;;;9.65;59.08;97805.78;4229377;28;5640;-73
2023/01/10 09:31:40;;;;;;;;;;;;;;;9.65;59.22;97803.16;4234707;28;5598;-74
2023/01/10 09:33:45;;;;;;;;;;;;;;;9.65;59.16;97812.88;4202707;28;5730;-73
2023/01/10 09:35:49;;;;;;;;;;;;;;;9.63;58.93;97813.03;4229713;28;6294;-73
2023/01/10 09:37:54;;;;;;;;;;;;;;;9.63;59.22;97813.03;4232085;28;5801;-75
2023/01/10 09:39:59;;;;;;;;;;;;;;;9.62;58.94;97814.00;4230754;28;5772;-73
2023/01/10 09:42:19;;;;;;;;;;;;;;;9.63;59.12;97821.78;4237048;28;5618;-74
2023/01/10 09:44:37;;;;;;;;;;;;;;;9.62;58.76;97814.84;4223207;28;5854;-74
2023/01/10 09:46:50;;;;;;;;;;;;;;;9.62;58.71;97814.00;4228951;28;5658;-74
2023/01/10 09:48:59;;;;;;;;;;;;;;;9.66;58.83;97815.34;4233562;28;5696;-74
2023/01/10 09:51:16;;;;;;;;;;;;;;;9.63;58.75;97827.06;4224825;28;5784;-73
2023/01/10 09:53:23;;;;;;;;;;;;;;;9.70;58.64;97829.88;4232746;28;6291;-74
2023/01/10 09:55:31;;;;;;;;;;;;;;;9.73;58.54;97832.19;4234431;28;5618;-75
2023/01/10 09:57:35;;;;;;;;;;;;;;;9.74;58.69;97827.72;4237642;28;5601;-75
2023/01/10 09:59:41;;;;;;;;;;;;;;;9.73;58.66;97826.06;4235522;28;5635;-74
2023/01/10 10:01:46;;;;;;;;;;;;;;;9.76;58.23;97831.06;4228951;28;5625;-73
2023/01/10 10:03:58;;;;;;;;;;;;;;;9.77;58.45;97828.25;4230769;28;5651;-73
2023/01/10 10:06:02;;;;;;;;;;;;;;;9.77;58.27;97844.09;4236074;28;6808;-73
2023/01/10 10:08:19;;;;;;;;;;;;;;;9.81;58.39;97841.94;4236201;28;5840;-74
2023/01/10 10:10:25;;;;;;;;;;;;;;;9.84;58.24;97839.78;4225377;28;6321;-73
2023/01/10 10:12:39;;;;;;;;;;;;;;;9.82;58.06;97848.88;4234735;28;5598;-73
2023/01/10 10:14:56;;;;;;;;;;;;;;;9.83;58.12;97848.72;4224908;28;5098;-74
2023/01/10 10:17:12;;;;;;;;;;;;;;;9.84;57.92;97841.59;4223300;28;7640;-75
2023/01/10 10:19:23;;;;;;;;;;;;;;;9.86;57.72;97840.47;4230397;28;5705;-74
2023/01/10 10:21:35;;;;;;;;;;;;;;;9.88;58.09;97845.59;4232117;28;6204;-74
2023/01/10 10:23:50;;;;;;;;;;;;;;;9.87;57.93;97852.69;4229606;28;5586;-74
2023/01/10 10:26:04;;;;;;;;;;;;;;;9.87;57.79;97843.94;4230607;28;5622;-74
2023/01/10 10:28:30;;;;;;;;;;;;;;;9.94;57.69;97850.22;4234059;28;5614;-73
2023/01/10 10:30:47;;;;;;;;;;;;;;;9.98;57.58;97848.09;4227612;28;5700;-74
2023/01/10 10:33:06;;;;;;;;;;;;;;;9.96;57.67;97858.78;4233900;28;5860;-74
2023/01/10 10:35:15;;;;;;;;;;;;;;;9.98;57.20;97858.66;4226058;28;6790;-75
2023/01/10 10:37:23;;;;;;;;;;;;;;;9.94;57.55;97852.84;4222524;28;5657;-75
2023/01/10 10:39:34;;;;;;;;;;;;;;;9.89;57.39;97850.72;4226962;28;5815;-74
2023/01/10 10:41:41;;;;;;;;;;;;;;;9.89;57.39;97853.34;4229606;28;5764;-74
2023/01/10 10:43:47;;;;;;;;;;;;;;;9.93;57.37;97854.66;4233757;28;6500;-74
2023/01/10 10:45:54;;;;;;;;;;;;;;;9.96;57.53;97850.03;4231148;28;5628;-74
2023/01/10 10:48:03;;;;;;;;;;;;;;;9.99;57.51;97852.38;4229822;28;5677;-74
2023/01/10 10:50:21;;;;;;;;;;;;;;;10.00;57.33;97843.47;4234637;28;6425;-74
2023/01/10 10:52:26;;;;;;;;;;;;;;;9.98;57.07;97850.72;4234725;28;5597;-73
2023/01/10 10:54:36;;;;;;;;;;;;;;;9.95;57.07;97845.75;4221713;28;5621;-74
2023/01/10 10:56:40;;;;;;;;;;;;;;;9.99;56.79;97849.75;4219057;28;5675;-74
2023/01/10 10:58:49;;;;;;;;;;;;;;;9.99;57.33;97850.56;4235106;28;5614;-74
2023/01/10 11:00:55;;;;;;;;;;;;;;;10.04;57.01;97850.88;4225656;28;5602;-74
2023/01/10 11:03:06;;;;;;;;;;;;;;;10.04;56.93;97844.78;4230458;28;5594;-74
2023/01/10 11:05:18;;;;;;;;;;;;;;;10.07;56.75;97852.38;4232997;28;5602;-75
2023/01/10 11:07:22;;;;;;;;;;;;;;;10.10;56.87;97846.78;4224825;28;5614;-75
2023/01/10 11:09:29;;;;;;;;;;;;;;;10.09;56.59;97842.50;4217785;28;5624;-71
2023/01/10 11:11:36;;;;;;;;;;;;;;;10.10;56.68;97850.25;4227672;28;5894;-74
2023/01/10 11:13:47;;;;;;;;;;;;;;;10.13;56.58;97841.16;4233561;28;5609;-73
2023/01/10 11:15:50;;;;;;;;;;;;;;;10.16;56.29;97832.88;4234559;28;5723;-73
2023/01/10 11:18:05;;;;;;;;;;;;;;;10.19;56.29;97833.41;4234531;28;5613;-74
2023/01/10 11:20:15;;;;;;;;;;;;;;;10.19;56.72;97829.91;4220248;28;5613;-74
2023/01/10 11:22:19;;;;;;;;;;;;;;;10.16;56.58;97825.78;4232746;28;5601;-74
2023/01/10 11:24:30;;;;;;;;;;;;;;;10.18;56.31;97825.63;4234236;28;5942;-74
2023/01/10 11:26:39;;;;;;;;;;;;;;;10.23;56.27;97819.88;4219866;28;5073;-74
2023/01/10 11:28:44;;;;;;;;;;;;;;;10.27;56.40;97822.03;4234700;28;5722;-74
2023/01/10 11:30:51;;;;;;;;;;;;;;;10.23;56.05;97814.59;4219124;28;5688;-73
2023/01/10 11:32:57;;;;;;;;;;;;;;;10.19;56.06;97806.97;4228344;28;5616;-73
2023/01/10 11:35:02;;;;;;;;;;;;;;;10.22;56.11;97808.50;4218082;28;5609;-73
2023/01/10 11:37:18;;;;;;;;;;;;;;;10.20;56.18;97803.34;4223503;28;5617;-74
2023/01/10 11:39:22;;;;;;;;;;;;;;;10.21;56.32;97809.47;4228118;28;5692;-73
2023/01/10 11:41:30;;;;;;;;;;;;;;;10.22;56.16;97800.56;4227599;28;5617;-74
2023/01/10 11:43:35;;;;;;;;;;;;;;;10.24;56.08;97795.94;4233623;28;5610;-75
2023/01/10 11:45:39;;;;;;;;;;;;;;;10.28;55.79;97793.78;4229773;28;5687;-74
2023/01/10 11:47:47;;;;;;;;;;;;;;;10.24;55.85;97789.81;4228344;28;5700;-74
2023/01/10 11:49:51;;;;;;;;;;;;;;;10.23;56.02;97782.88;4228992;28;5607;-74
2023/01/10 11:51:59;;;;;;;;;;;;;;;10.26;55.74;97778.09;4237655;28;5704;-74
2023/01/10 11:54:05;;;;;;;;;;;;;;;10.25;55.72;97772.97;4235421;28;5610;-75
2023/01/10 11:56:11;;;;;;;;;;;;;;;10.28;55.87;97770.00;4236414;28;6310;-74
2023/01/10 11:58:14;;;;;;;;;;;;;;;10.29;55.61;97766.34;4234043;28;5595;-74
2023/01/10 12:00:18;;;;;;;;;;;;;;;10.31;55.61;97756.47;4228340;28;5619;-75
2023/01/10 12:02:24;;;;;;;;;;;;;;;10.30;55.95;97755.59;4235135;28;5652;-73
2023/01/10 12:04:34;;;;;;;;;;;;;;;10.30;55.51;97758.25;4235495;28;5744;-73
2023/01/10 12:06:44;;;;;;;;;;;;;;;10.29;55.92;97747.84;4230637;28;5618;-73
2023/01/10 12:08:48;;;;;;;;;;;;;;;10.26;55.56;97741.09;4233251;28;5613;-73
2023/01/10 12:11:00;;;;;;;;;;;;;;;10.29;55.58;97732.81;4227864;28;5609;-73
2023/01/10 12:13:14;;;;;;;;;;;;;;;10.35;55.14;97731.34;4228668;28;5616;-74
2023/01/10 12:15:24;;;;;;;;;;;;;;;10.36;55.31;97723.22;4227705;28;5605;-74
2023/01/10 12:17:31;;;;;;;;;;;;;;;10.37;55.32;97724.88;4221391;28;5621;-75
2023/01/10 12:19:35;;;;;;;;;;;;;;;10.35;55.12;97726.88;4236420;28;5705;-74
2023/01/10 12:21:40;;;;;;;;;;;;;;;10.39;55.19;97714.13;4236565;28;6402;-71
2023/01/10 12:23:46;;;;;;;;;;;;;;;10.40;55.23;97723.72;4234210;28;5865;-71
2023/01/10 12:25:53;;;;;;;;;;;;;;;10.44;55.00;97704.72;4229026;28;5684;-71
2023/01/10 12:28:18;;;;;;;;;;;;;;;10.47;54.98;97711.47;4229863;28;5622;-71
2023/01/10 12:30:31;;;;;;;;;;;;;;;10.52;54.78;97705.66;4236467;28;5586;-78
2023/01/10 12:32:44;;;;;;;;;;;;;;;10.48;54.71;97698.09;4224105;28;5803;-79
2023/01/10 12:34:53;;;;;;;;;;;;;;;10.50;54.69;97697.91;4236928;28;5693;-80
2023/01/10 12:37:04;;;;;;;;;;;;;;;10.50;54.46;97703.19;4236184;28;5607;-80
2023/01/10 12:39:15;;;;;;;;;;;;;;;10.48;54.46;97703.38;4233544;28;5651;-80
2023/01/10 12:46:15;;;;;;;;;;;;;;;10.44;54.39;97675.63;4226116;28;5606;-80
2023/01/10 12:48:46;;;;;;;;;;;;;;;10.46;54.28;97673.63;4224926;28;5865;-81
2023/01/10 12:50:59;;;;;;;;;;;;;;;10.45;54.03;97668.53;4223654;28;5612;-80
2023/01/10 12:53:11;;;;;;;;;;;;;;;10.42;54.16;97669.69;4235052;27;5586;-81
2023/01/10 12:55:15;;;;;;;;;;;;;;;10.39;54.11;97664.72;4236699;28;5618;-81
2023/01/10 12:57:26;;;;;;;;;;;;;;;10.40;54.33;97661.09;4228807;28;5640;-80
2023/01/10 12:59:36;;;;;;;;;;;;;;;10.42;54.00;97653.00;4223243;28;5930;-81
2023/01/10 13:01:42;;;;;;;;;;;;;;;10.45;54.06;97648.19;4221598;28;5704;-80
2023/01/10 13:03:49;;;;;;;;;;;;;;;10.48;53.75;97641.75;4229814;28;5633;-80
2023/01/10 13:05:54;;;;;;;;;;;;;;;10.44;53.99;97643.91;4228845;28;5767;-81
2023/01/10 13:08:04;;;;;;;;;;;;;;;10.45;53.91;97648.19;4226376;28;5701;-81
2023/01/10 13:10:14;;;;;;;;;;;;;;;10.44;54.23;97649.19;4229575;28;5599;-81
2023/01/10 13:12:23;;;;;;;;;;;;;;;10.48;53.81;97645.22;4229344;28;5613;-81
2023/01/10 13:14:32;;;;;;;;;;;;;;;10.54;53.73;97642.88;4231179;28;5609;-81
2023/01/10 13:16:45;;;;;;;;;;;;;;;10.58;53.86;97630.97;4229727;28;5594;-81
2023/01/10 13:19:01;;;;;;;;;;;;;;;10.61;53.75;97625.31;4235598;28;5609;-81
2023/01/10 13:21:12;;;;;;;;;;;;;;;10.62;53.55;97621.69;4231954;28;5822;-80
2023/01/10 13:23:29;;;;;;;;;;;;;;;10.59;53.72;97614.91;4228416;28;5605;-80
2023/01/10 13:25:36;;;;;;;;;;;;;;;10.63;53.61;97618.84;4227469;28;5597;-79
2023/01/10 13:27:42;;;;;;;;;;;;;;;10.66;53.28;97612.41;4230772;28;5618;-80
2023/01/10 13:29:47;;;;;;;;;;;;;;;10.65;53.63;97622.19;4211452;28;6310;-82
2023/01/10 13:31:57;;;;;;;;;;;;;;;10.64;53.52;97619.69;4227175;28;5618;-81
2023/01/10 13:34:04;;;;;;;;;;;;;;;10.61;53.43;97620.84;4224965;28;5674;-81
2023/01/10 13:36:12;;;;;;;;;;;;;;;10.56;53.25;97619.75;4231712;28;5971;-82
2023/01/10 13:38:20;;;;;;;;;;;;;;;10.54;53.54;97609.34;4229069;28;5832;-80
2023/01/10 13:40:26;;;;;;;;;;;;;;;10.58;53.55;97615.09;4234821;28;5836;-80
2023/01/10 13:45:15;;;;;;;;;;;;;;;10.57;53.39;97605.53;4204708;28;5609;-81
2023/01/10 13:48:02;;;;;;;;;;;;;;;10.54;53.36;97595.31;4216335;28;5621;-80
2023/01/10 13:50:45;;;;;;;;;;;;;;;10.49;53.17;97606.38;4217685;28;6334;-80
2023/01/10 13:52:50;;;;;;;;;;;;;;;10.48;52.95;97592.34;4229214;28;5602;-80
2023/01/10 13:54:57;;;;;;;;;;;;;;;10.53;53.00;97591.81;4222631;28;5669;-81
2023/01/10 13:57:00;;;;;;;;;;;;;;;10.57;53.10;97585.19;4226653;28;5617;-80
2023/01/10 14:03:52;;;;;;;;;;;;;;;10.56;52.93;97602.06;4229107;28;5808;-81
2023/01/10 14:05:55;;;;;;;;;;;;;;;10.55;52.98;97607.53;4230402;28;5719;-82
2023/01/10 14:08:01;;;;;;;;;;;;;;;10.57;52.71;97600.22;4213342;28;5696;-81
2023/01/10 14:10:06;;;;;;;;;;;;;;;10.61;52.61;97593.59;4226475;28;5637;-81
2023/01/10 14:12:19;;;;;;;;;;;;;;;10.63;52.86;97603.00;4225160;28;5525;-81
2023/01/10 14:14:26;;;;;;;;;;;;;;;10.64;52.68;97593.22;4225061;28;6864;-81
2023/01/10 14:16:35;;;;;;;;;;;;;;;10.65;52.41;97594.91;4218735;28;5689;-80
2023/01/10 14:18:41;;;;;;;;;;;;;;;10.62;52.50;97590.78;4233060;28;5801;-81
2023/01/10 14:20:45;;;;;;;;;;;;;;;10.60;52.35;97590.13;4228716;28;5772;-80
2023/01/10 14:23:02;;;;;;;;;;;;;;;10.61;52.38;97594.41;4231862;28;5744;-80
2023/01/10 14:25:18;;;;;;;;;;;;;;;10.61;52.67;97588.31;4230342;28;5673;-81
2023/01/10 14:27:22;;;;;;;;;;;;;;;10.64;52.40;97593.22;4226395;28;6386;-81
2023/01/10 14:29:29;;;;;;;;;;;;;;;10.61;52.30;97590.94;4216944;28;5838;-81
2023/01/10 14:31:35;;;;;;;;;;;;;;;10.59;52.35;97583.19;4233689;28;5589;-81
2023/01/10 14:33:43;;;;;;;;;;;;;;;10.58;52.62;97586.84;4219886;28;5720;-80
2023/01/10 14:35:50;;;;;;;;;;;;;;;10.57;52.54;97587.00;4226213;28;5601;-81
2023/01/10 14:37:56;;;;;;;;;;;;;;;10.56;52.09;97583.53;4222075;28;5676;-80
2023/01/10 14:40:01;;;;;;;;;;;;;;;10.54;52.37;97580.25;4217324;28;5093;-80
2023/01/10 14:42:08;;;;;;;;;;;;;;;10.52;52.49;97584.88;4230603;28;5705;-80
2023/01/10 14:44:17;;;;;;;;;;;;;;;10.49;52.65;97585.22;4231656;28;5692;-80
2023/01/10 14:46:23;;;;;;;;;;;;;;;10.50;52.11;97587.69;4227449;28;5829;-79
2023/01/10 14:48:30;;;;;;;;;;;;;;;10.53;52.41;97585.69;4217592;28;6276;-80
2023/01/10 14:50:33;;;;;;;;;;;;;;;10.52;52.06;97594.63;4223378;28;5643;-81
2023/01/10 14:52:37;;;;;;;;;;;;;;;10.54;52.12;97600.59;4224787;28;5652;-81
2023/01/10 14:54:41;;;;;;;;;;;;;;;10.53;52.17;97598.91;4224244;28;5612;-81
2023/01/10 14:56:47;;;;;;;;;;;;;;;10.50;52.21;97598.28;4223080;28;5964;-81
2023/01/10 14:58:50;;;;;;;;;;;;;;;10.52;52.11;97594.63;4225715;28;6290;-80
2023/01/10 15:00:54;;;;;;;;;;;;;;;10.52;52.05;97600.72;4223636;28;6310;-81
2023/01/10 15:03:02;;;;;;;;;;;;;;;10.50;52.25;97595.63;4217648;28;5680;-82
2023/01/10 15:05:09;;;;;;;;;;;;;;;10.50;52.00;97605.38;4225250;28;5656;-80
2023/01/10 15:07:15;;;;;;;;;;;;;;;10.50;52.09;97603.56;4224149;28;5828;-80
2023/01/10 15:09:18;;;;;;;;;;;;;;;10.50;52.08;97600.91;4228170;28;5850;-80
2023/01/10 15:11:22;;;;;;;;;;;;;;;10.53;52.05;97607.66;4219309;28;5928;-79
2023/01/10 15:13:29;;;;;;;;;;;;;;;10.52;51.91;97606.03;4225632;28;5636;-80
2023/01/10 15:15:36;;;;;;;;;;;;;;;10.52;52.17;97615.78;4223142;28;6519;-79
2023/01/10 15:17:41;;;;;;;;;;;;;;;10.51;52.06;97607.03;4222713;28;5620;-80
2023/01/10 15:19:45;;;;;;;;;;;;;;;10.50;51.94;97608.84;4223429;28;5945;-81
2023/01/10 15:21:48;;;;;;;;;;;;;;;10.49;51.99;97607.19;4222272;28;5714;-80
2023/01/10 15:23:51;;;;;;;;;;;;;;;10.50;51.74;97600.09;4221049;27;5625;-80
2023/01/10 15:25:58;;;;;;;;;;;;;;;10.48;51.71;97596.81;4225455;27;5609;-80
2023/01/10 15:28:01;;;;;;;;;;;;;;;10.45;51.94;97602.44;4205203;28;5758;-80
2023/01/10 15:30:10;;;;;;;;;;;;;;;10.42;51.92;97603.63;4224508;28;5711;-81
2023/01/10 15:32:23;;;;;;;;;;;;;;;10.45;51.90;97607.72;4226464;27;5861;-81
2023/01/10 15:34:29;;;;;;;;;;;;;;;10.48;51.79;97605.56;4229026;27;6314;-81
2023/01/10 15:36:33;;;;;;;;;;;;;;;10.50;51.68;97614.13;4227169;28;5688;-81
2023/01/10 15:38:41;;;;;;;;;;;;;;;10.52;51.73;97611.31;4226794;27;6294;-82
2023/01/10 15:40:45;;;;;;;;;;;;;;;10.50;51.66;97608.03;4228550;27;5626;-81
2023/01/10 15:42:55;;;;;;;;;;;;;;;10.48;51.86;97607.38;4228879;28;5685;-82
2023/01/10 15:45:26;;;;;;;;;;;;;;;10.47;51.68;97609.19;4212846;28;5773;-80
2023/01/10 15:47:36;;;;;;;;;;;;;;;10.46;51.78;97599.63;4228781;27;5772;-80
2023/01/10 15:49:39;;;;;;;;;;;;;;;10.48;51.41;97599.44;4230505;27;5610;-81
2023/01/10 15:51:47;;;;;;;;;;;;;;;10.45;51.81;97599.81;4229876;28;5698;-83
2023/01/10 15:54:02;;;;;;;;;;;;;;;10.43;51.45;97599.97;4236577;28;5824;-81
2023/01/10 15:56:11;;;;;;;;;;;;;;;10.43;51.46;97597.34;4236445;28;5825;-80
2023/01/10 15:58:22;;;;;;;;;;;;;;;10.43;51.63;97597.34;4233705;27;7311;-80
2023/01/10 16:00:28;;;;;;;;;;;;;;;10.47;51.33;97603.91;4231581;27;5816;-79
2023/01/10 16:02:32;;;;;;;;;;;;;;;10.48;51.59;97594.16;4230440;27;5732;-80
2023/01/10 16:04:36;;;;;;;;;;;;;;;10.47;51.69;97603.91;4228635;27;5610;-80
2023/01/10 16:06:41;;;;;;;;;;;;;;;10.46;51.75;97602.25;4226679;27;5594;-80
2023/01/10 16:08:49;;;;;;;;;;;;;;;10.47;51.55;97598.63;4228517;27;5867;-80
2023/01/10 16:10:57;;;;;;;;;;;;;;;10.47;51.66;97588.03;4222848;27;5703;-79
2023/01/10 16:13:30;;;;;;;;;;;;;;;10.47;51.52;97592.50;4228008;27;5598;-80
2023/01/10 16:15:37;;;;;;;;;;;;;;;10.46;51.24;97601.44;4224481;28;5732;-80
2023/01/10 16:17:41;;;;;;;;;;;;;;;10.36;51.53;97593.72;4225611;27;5817;-80
2023/01/10 16:19:44;;;;;;;;;;;;;;;10.35;51.55;97589.44;4232267;28;5819;-81
2023/01/10 16:21:50;;;;;;;;;;;;;;;10.36;51.59;97588.44;4227240;27;5751;-81
2023/01/10 16:23:53;;;;;;;;;;;;;;;10.39;51.39;97582.78;4227828;28;6773;-81
2023/01/10 16:25:59;;;;;;;;;;;;;;;10.40;51.47;97580.97;4227679;27;5598;-80
2023/01/10 16:28:02;;;;;;;;;;;;;;;10.44;51.54;97587.56;4227425;28;5748;-81
2023/01/10 16:30:06;;;;;;;;;;;;;;;10.45;51.40;97587.41;4227655;28;5714;-79
2023/01/10 16:32:14;;;;;;;;;;;;;;;10.45;51.55;97590.03;4228541;27;5602;-80
2023/01/10 16:34:18;;;;;;;;;;;;;;;10.44;51.45;97585.75;4226492;28;5946;-80
2023/01/10 16:36:21;;;;;;;;;;;;;;;10.51;51.33;97585.88;4229542;27;5586;-75
2023/01/10 16:38:27;;;;;;;;;;;;;;;10.50;51.38;97586.88;4229889;28;5897;-72
2023/01/10 16:40:36;;;;;;;;;;;;;;;10.49;51.54;97586.06;4225124;28;5697;-67
2023/01/10 16:45:00;;;;;;;;;;;;;;;10.53;51.40;97588.34;4230932;27;5847;-69
2023/01/10 16:47:04;;;;;;;;;;;;;;;10.53;51.08;97586.50;4223543;28;6370;-68
2023/01/10 16:49:10;;;;;;;;;;;;;;;10.53;51.33;97590.97;4228914;27;5836;-67
2023/01/10 16:51:19;;;;;;;;;;;;;;;10.54;51.41;97588.19;4211253;28;5856;-73
2023/01/10 16:53:22;;;;;;;;;;;;;;;10.57;51.48;97592.31;4227929;28;5712;-73
2023/01/10 16:55:31;;;;;;;;;;;;;;;10.57;51.35;97594.94;4227271;27;5700;-73
2023/01/10 16:57:35;;;;;;;;;;;;;;;10.58;51.14;97593.94;4224784;27;5699;-74
2023/01/10 16:59:38;;;;;;;;;;;;;;;10.58;51.22;97589.47;4225866;27;6152;-74
2023/01/10 17:01:45;;;;;;;;;;;;;;;10.59;50.94;97593.78;4229345;27;5708;-71
2023/01/10 17:03:48;;;;;;;;;;;;;;;10.59;50.93;97592.94;4230809;28;5748;-79
2023/01/10 17:05:52;;;;;;;;;;;;;;;10.58;51.39;97588.66;4229414;27;5692;-78
2023/01/10 17:07:55;;;;;;;;;;;;;;;10.57;51.41;97595.78;4223176;28;6140;-65
2023/01/10 17:09:58;;;;;;;;;;;;;;;10.58;51.38;97596.59;4228652;28;6398;-64
2023/01/10 17:12:05;;;;;;;;;;;;;;;10.56;51.32;97595.94;4227075;27;5867;-64
2023/01/10 17:14:12;;;;;;;;;;;;;;;10.58;51.04;97596.59;4223680;27;5684;-71
2023/01/10 17:16:15;;;;;;;;;;;;;;;10.57;51.23;97592.31;4224412;28;5838;-71
2023/01/10 17:18:23;;;;;;;;;;;;;;;10.60;51.31;97597.22;4222658;27;5863;-73
2023/01/10 17:20:26;;;;;;;;;;;;;;;10.63;51.21;97596.88;4231766;27;5700;-72
2023/01/10 17:22:30;;;;;;;;;;;;;;;10.62;51.38;97604.00;4228212;28;5762;-73
2023/01/10 17:24:33;;;;;;;;;;;;;;;10.61;51.03;97604.16;4227103;28;5730;-72
2023/01/10 17:26:36;;;;;;;;;;;;;;;10.60;51.27;97613.09;4227672;27;5590;-71
2023/01/10 17:28:40;;;;;;;;;;;;;;;10.60;50.95;97613.09;4229490;27;5779;-73
2023/01/10 17:30:43;;;;;;;;;;;;;;;10.63;51.55;97612.75;4225971;27;6667;-69
2023/01/10 17:32:46;;;;;;;;;;;;;;;10.65;51.47;97610.78;4223066;28;5669;-73
2023/01/10 17:34:49;;;;;;;;;;;;;;;10.64;51.54;97614.38;4226067;27;6342;-66
2023/01/10 17:36:52;;;;;;;;;;;;;;;10.64;51.05;97611.75;4224669;28;5698;-66
2023/01/10 17:38:57;;;;;;;;;;;;;;;10.64;51.45;97612.56;4225587;28;5907;-68
2023/01/10 17:41:02;;;;;;;;;;;;;;;10.65;51.32;97616.06;4223081;27;5594;-68
2023/01/10 17:43:05;;;;;;;;;;;;;;;10.64;51.60;97611.75;4222699;27;5656;-68
2023/01/10 17:45:09;;;;;;;;;;;;;;;10.63;51.28;97616.22;4225834;27;5711;-68
2023/01/10 17:47:11;;;;;;;;;;;;;;;10.62;51.44;97622.50;4226719;27;5660;-67
2023/01/10 17:49:14;;;;;;;;;;;;;;;10.61;51.54;97615.56;4207381;28;6489;-68
2023/01/10 17:51:17;;;;;;;;;;;;;;;10.63;51.63;97618.03;4227418;27;5614;-67
2023/01/10 17:53:20;;;;;;;;;;;;;;;10.64;51.60;97614.38;4225426;27;5119;-67
2023/01/10 17:55:24;;;;;;;;;;;;;;;10.61;51.63;97610.28;4227552;27;5578;-67
2023/01/10 17:57:26;;;;;;;;;;;;;;;10.63;51.25;97607.47;4220069;28;5628;-68
2023/01/10 17:59:29;;;;;;;;;;;;;;;10.63;51.27;97612.75;4212941;28;6121;-67
2023/01/10 18:01:32;;;;;;;;;;;;;;;10.61;51.45;97620.84;4226411;27;5943;-68
2023/01/10 18:03:35;;;;;;;;;;;;;;;10.62;51.83;97611.09;4228912;27;5669;-68
2023/01/10 18:05:38;;;;;;;;;;;;;;;10.66;51.82;97623.00;4227090;28;5689;-68
2023/01/10 18:07:41;;;;;;;;;;;;;;;10.68;51.76;97615.72;4222559;28;7311;-69
2023/01/10 18:09:44;;;;;;;;;;;;;;;10.67;51.78;97606.97;4229031;28;5872;-68
2023/01/10 18:11:48;;;;;;;;;;;;;;;10.68;51.39;97607.78;4231227;27;5602;-69
2023/01/10 18:13:51;;;;;;;;;;;;;;;10.65;51.72;97613.41;4228805;27;5697;-68
2023/01/10 18:15:53;;;;;;;;;;;;;;;10.65;51.69;97605.50;4227702;27;5721;-68
2023/01/10 18:17:56;;;;;;;;;;;;;;;10.65;51.74;97606.31;4229444;28;5673;-69
2023/01/10 18:19:59;;;;;;;;;;;;;;;10.65;52.01;97597.56;4222678;28;5716;-68
2023/01/10 18:23:19;;;;;;;;;;;;;;;10.62;51.82;97606.63;4230024;27;5724;-68
2023/01/10 18:24:27;;;;;;;;;;;;;;;10.63;51.92;97604.81;4228744;27;5738;-68
2023/01/10 18:26:30;;;;;;;;;;;;;;;10.63;51.82;97607.47;4228517;27;5751;-67
2023/01/10 18:28:38;;;;;;;;;;;;;;;10.61;51.93;97610.28;4231239;27;5602;-67
2023/01/10 18:30:44;;;;;;;;;;;;;;;10.64;51.90;97604.63;4228143;27;5859;-68
2023/01/10 18:32:46;;;;;;;;;;;;;;;10.67;52.03;97604.31;4231788;27;5586;-67
2023/01/10 18:34:50;;;;;;;;;;;;;;;10.67;52.14;97592.91;4231783;27;5582;-68
2023/01/10 18:36:52;;;;;;;;;;;;;;;10.67;51.94;97591.09;4217323;28;5621;-68